createdAt,value
2022-12-16T00:01:15.558Z,87.63
2022-12-16T00:03:52.197Z,89.03
2022-12-16T00:06:24.801Z,91.90
2022-12-16T00:08:53.556Z,88.90
2022-12-16T00:11:21.556Z,87.75
2022-12-16T00:13:49.642Z,86.47
2022-12-16T00:16:20.424Z,87.97
2022-12-16T00:18:48.949Z,94.57
2022-12-16T00:21:18.649Z,83.22
2022-12-16T00:23:47.138Z,87.25
2022-12-16T00:26:15.255Z,83.97
2022-12-16T00:28:43.952Z,84.93
2022-12-16T00:31:12.496Z,91.63
2022-12-16T00:33:41.036Z,84.00
2022-12-16T00:36:09.296Z,86.30
2022-12-16T00:38:38.006Z,86.38
2022-12-16T00:41:06.180Z,78.10
2022-12-16T00:43:34.611Z,84.85
2022-12-16T00:46:02.494Z,83.35
2022-12-16T00:48:30.596Z,90.18
2022-12-16T00:50:58.425Z,85.97
2022-12-16T00:53:26.809Z,88.47
2022-12-16T00:56:09.257Z,89.20
2022-12-16T00:58:37.948Z,95.63
2022-12-16T01:01:06.856Z,83.80
2022-12-16T01:03:35.702Z,90.35
2022-12-16T01:06:09.933Z,94.00
2022-12-16T01:08:38.084Z,97.70
2022-12-16T01:11:06.165Z,92.18
2022-12-16T01:13:34.679Z,86.32
2022-12-16T01:16:03.350Z,86.75
2022-12-16T01:18:31.834Z,91.32
2022-12-16T01:21:07.579Z,88.32
2022-12-16T01:23:36.671Z,86.60
2022-12-16T01:26:04.543Z,89.32
2022-12-16T01:28:32.609Z,91.13
2022-12-16T01:31:04.257Z,100.70
2022-12-16T01:33:33.540Z,89.80
2022-12-16T01:36:04.879Z,95.82
2022-12-16T01:38:33.287Z,88.75
2022-12-16T01:41:01.499Z,91.85
2022-12-16T01:43:33.225Z,93.50
2022-12-16T01:46:14.644Z,88.13
2022-12-16T01:49:08.185Z,89.65
2022-12-16T01:51:39.764Z,83.83
2022-12-16T01:54:23.568Z,81.60
2022-12-16T01:57:00.948Z,82.57
2022-12-16T01:59:31.701Z,83.50
2022-12-16T02:02:00.225Z,79.75
2022-12-16T02:04:28.347Z,85.78
2022-12-16T02:06:56.970Z,84.95
2022-12-16T02:09:25.227Z,83.88
2022-12-16T02:12:19.708Z,76.35
2022-12-16T02:15:02.806Z,79.75
2022-12-16T02:17:41.839Z,88.15
2022-12-16T02:20:19.082Z,85.95
2022-12-16T02:22:58.493Z,74.68
2022-12-16T02:25:58.426Z,74.32
2022-12-16T02:29:10.400Z,76.82
2022-12-16T02:31:56.152Z,82.68
2022-12-16T02:34:41.619Z,77.55
2022-12-16T02:37:29.052Z,77.70
2022-12-16T02:40:01.593Z,72.38
2022-12-16T02:43:12.603Z,71.95
2022-12-16T02:45:41.844Z,70.60
2022-12-16T02:48:09.784Z,70.72
2022-12-16T02:50:44.356Z,73.10
2022-12-16T02:53:13.043Z,71.47
2022-12-16T02:55:53.625Z,76.93
2022-12-16T02:58:32.248Z,77.57
2022-12-16T03:01:24.241Z,74.43
2022-12-16T03:04:10.786Z,70.95
2022-12-16T03:06:41.416Z,74.05
2022-12-16T03:09:13.511Z,67.53
2022-12-16T03:11:44.034Z,75.72
2022-12-16T03:14:16.854Z,70.00
2022-12-16T03:16:47.043Z,73.20
2022-12-16T03:19:15.216Z,73.85
2022-12-16T03:22:14.712Z,75.32
2022-12-16T03:24:43.568Z,80.65
2022-12-16T03:27:31.801Z,72.60
2022-12-16T03:30:06.774Z,76.70
2022-12-16T03:32:39.980Z,73.03
2022-12-16T03:35:19.669Z,71.60
2022-12-16T03:37:50.898Z,72.97
2022-12-16T03:40:21.590Z,80.63
2022-12-16T03:42:52.322Z,74.38
2022-12-16T03:45:26.590Z,74.78
2022-12-16T03:47:58.910Z,78.50
2022-12-16T03:50:31.984Z,81.60
2022-12-16T03:52:59.812Z,78.87
2022-12-16T03:55:28.210Z,82.93
2022-12-16T03:57:57.270Z,75.90
2022-12-16T04:00:25.723Z,79.82
2022-12-16T04:02:53.633Z,82.65
2022-12-16T04:05:22.949Z,81.63
2022-12-16T04:07:50.957Z,76.82
2022-12-16T04:10:39.015Z,84.32
2022-12-16T04:13:26.812Z,85.30
2022-12-16T04:16:13.957Z,79.10
2022-12-16T04:19:00.712Z,86.03
2022-12-16T04:21:47.736Z,79.18
2022-12-16T04:24:19.674Z,83.05
2022-12-16T04:27:15.069Z,90.00
2022-12-16T04:30:06.824Z,85.72
2022-12-16T04:32:53.264Z,80.30
2022-12-16T04:35:39.741Z,77.18
2022-12-16T04:38:26.597Z,87.05
2022-12-16T04:41:13.020Z,80.72
2022-12-16T04:44:00.266Z,84.25
2022-12-16T04:46:46.764Z,89.78
2022-12-16T04:49:33.299Z,89.22
2022-12-16T04:52:19.481Z,81.68
2022-12-16T04:55:06.026Z,85.20
2022-12-16T04:57:52.787Z,83.18
2022-12-16T05:00:39.884Z,83.78
2022-12-16T05:03:27.110Z,84.43
2022-12-16T05:06:13.567Z,85.95
2022-12-16T05:09:00.148Z,91.78
2022-12-16T05:11:46.816Z,84.60
2022-12-16T05:14:33.215Z,96.57
2022-12-16T05:17:19.515Z,95.43
2022-12-16T05:20:05.701Z,90.53
2022-12-16T05:22:52.728Z,90.43
2022-12-16T05:25:40.792Z,89.68
2022-12-16T05:28:27.658Z,85.60
2022-12-16T05:31:14.021Z,89.03
2022-12-16T05:34:00.788Z,93.55
2022-12-16T05:36:47.286Z,87.72
2022-12-16T05:39:33.799Z,85.95
2022-12-16T05:42:20.280Z,92.50
2022-12-16T05:45:06.843Z,88.82
2022-12-16T05:47:53.866Z,87.35
2022-12-16T05:50:40.368Z,98.40
2022-12-16T05:53:30.199Z,92.30
2022-12-16T05:56:17.163Z,88.75
2022-12-16T05:59:03.406Z,92.85
2022-12-16T06:01:50.119Z,83.68
2022-12-16T06:04:36.489Z,87.47
2022-12-16T06:07:22.926Z,89.97
2022-12-16T06:10:09.290Z,87.40
2022-12-16T06:12:55.732Z,92.32
2022-12-16T06:15:42.150Z,92.07
2022-12-16T06:18:28.886Z,101.15
2022-12-16T06:21:14.964Z,100.72
2022-12-16T06:24:01.587Z,98.85
2022-12-16T06:26:47.945Z,90.50
2022-12-16T06:29:34.272Z,94.15
2022-12-16T06:32:20.402Z,92.25
2022-12-16T06:35:07.137Z,97.18
2022-12-16T06:37:53.530Z,99.15
2022-12-16T06:40:40.228Z,96.57
2022-12-16T06:43:46.086Z,91.82
2022-12-16T06:46:32.601Z,103.47
2022-12-16T06:49:18.793Z,97.88
2022-12-16T06:52:05.097Z,104.13
2022-12-16T06:54:51.128Z,98.30
2022-12-16T06:57:37.769Z,85.57
2022-12-16T07:00:24.789Z,90.43
2022-12-16T07:03:11.177Z,101.20
2022-12-16T07:05:57.324Z,109.15
2022-12-16T07:08:43.880Z,92.13
2022-12-16T07:11:30.590Z,99.20
2022-12-16T07:14:17.324Z,80.65
2022-12-16T07:17:03.620Z,100.22
2022-12-16T07:19:50.094Z,92.95
2022-12-16T07:22:36.193Z,101.38
2022-12-16T07:25:23.409Z,95.90
2022-12-16T07:28:15.347Z,102.40
2022-12-16T07:31:03.079Z,104.72
2022-12-16T07:33:49.236Z,102.28
2022-12-16T07:36:35.742Z,101.70
2022-12-16T07:39:21.841Z,114.20
2022-12-16T07:42:08.193Z,100.30
2022-12-16T07:44:54.739Z,99.78
2022-12-16T07:47:41.073Z,95.72
2022-12-16T07:50:27.560Z,91.63
2022-12-16T07:53:15.875Z,108.30
2022-12-16T07:56:02.950Z,96.88
2022-12-16T07:58:49.828Z,93.28
2022-12-16T08:01:36.628Z,99.13
2022-12-16T08:04:23.187Z,98.82
2022-12-16T08:07:09.498Z,92.63
2022-12-16T08:09:55.923Z,108.72
2022-12-16T08:12:42.641Z,105.85
2022-12-16T08:15:29.460Z,93.55
2022-12-16T08:18:15.881Z,98.03
2022-12-16T08:21:02.509Z,100.18
2022-12-16T08:23:49.041Z,95.97
2022-12-16T08:26:35.555Z,86.80
2022-12-16T08:29:43.139Z,103.38
2022-12-16T08:32:28.312Z,99.38
2022-12-16T08:35:14.751Z,97.28
2022-12-16T08:38:01.459Z,105.53
2022-12-16T08:40:47.812Z,100.60
2022-12-16T08:43:35.242Z,96.78
2022-12-16T08:46:21.709Z,98.43
2022-12-16T08:49:08.189Z,99.32
2022-12-16T08:51:55.293Z,96.72
2022-12-16T08:54:42.131Z,95.93
2022-12-16T08:57:29.461Z,95.57
2022-12-16T09:00:16.298Z,105.10
2022-12-16T09:03:02.664Z,105.88
2022-12-16T09:05:49.552Z,101.90
2022-12-16T09:08:36.094Z,91.55
2022-12-16T09:11:23.078Z,100.15
2022-12-16T09:14:09.427Z,95.07
2022-12-16T09:16:56.419Z,103.82
2022-12-16T09:19:42.624Z,89.53
2022-12-16T09:22:29.183Z,99.72
2022-12-16T09:25:15.814Z,94.18
2022-12-16T09:28:02.535Z,96.65
2022-12-16T09:30:48.898Z,96.25
2022-12-16T09:33:35.900Z,96.53
2022-12-16T09:36:23.019Z,95.90
2022-12-16T09:39:09.468Z,95.40
2022-12-16T09:42:26.788Z,94.25
2022-12-16T09:45:30.341Z,90.10
2022-12-16T09:48:25.163Z,98.50
2022-12-16T09:51:14.886Z,96.95
2022-12-16T09:54:02.992Z,88.60
2022-12-16T09:56:55.141Z,89.43
2022-12-16T09:59:53.093Z,94.53
2022-12-16T10:02:43.544Z,88.20
2022-12-16T10:05:37.970Z,101.63
2022-12-16T10:08:29.992Z,93.47
2022-12-16T10:11:22.825Z,92.72
2022-12-16T10:14:19.738Z,86.20
2022-12-16T10:17:38.931Z,94.45
2022-12-16T10:20:31.613Z,88.05
2022-12-16T10:23:29.487Z,78.00
2022-12-16T10:26:30.793Z,96.97
2022-12-16T10:29:39.911Z,89.85
2022-12-16T10:33:00.584Z,91.40
2022-12-16T10:35:51.285Z,87.95
2022-12-16T10:38:55.028Z,93.07
2022-12-16T10:41:46.675Z,94.75
2022-12-16T10:44:47.656Z,90.53
2022-12-16T10:47:34.171Z,99.88
2022-12-16T10:50:21.047Z,97.60
2022-12-16T10:53:21.165Z,91.38
2022-12-16T10:56:10.671Z,87.40
2022-12-16T10:59:17.665Z,85.82
2022-12-16T11:02:17.288Z,88.15
2022-12-16T11:05:04.740Z,94.55
2022-12-16T11:07:51.267Z,103.68
2022-12-16T11:10:57.106Z,86.82
2022-12-16T11:13:45.678Z,88.47
2022-12-16T11:16:39.772Z,91.57
2022-12-16T11:19:47.500Z,90.13
2022-12-16T11:22:51.169Z,87.60
2022-12-16T11:25:40.224Z,86.50
2022-12-16T11:28:50.079Z,93.18
2022-12-16T11:31:36.730Z,97.10
2022-12-16T11:34:23.892Z,74.80
2022-12-16T11:37:11.852Z,86.80
2022-12-16T11:39:59.529Z,83.05
2022-12-16T11:42:50.624Z,93.85
2022-12-16T11:45:39.878Z,94.28
2022-12-16T11:49:00.590Z,87.32
2022-12-16T11:51:50.575Z,80.60
2022-12-16T11:54:47.824Z,92.78
2022-12-16T11:57:44.875Z,89.47
2022-12-16T12:00:35.135Z,83.90
2022-12-16T12:03:29.905Z,85.43
2022-12-16T12:06:49.542Z,79.97
2022-12-16T12:09:38.957Z,83.97
2022-12-16T12:12:42.756Z,86.30
2022-12-16T12:15:32.141Z,87.88
2022-12-16T12:18:27.173Z,88.20
2022-12-16T12:21:27.043Z,82.43
2022-12-16T12:24:19.760Z,75.35
2022-12-16T12:27:35.619Z,81.78
2022-12-16T12:30:36.862Z,84.25
2022-12-16T12:34:07.594Z,80.50
2022-12-16T12:37:25.060Z,80.00
2022-12-16T12:40:37.005Z,83.03
2022-12-16T12:43:43.236Z,74.90
2022-12-16T12:46:57.926Z,83.65
2022-12-16T12:49:55.619Z,76.55
2022-12-16T12:53:19.292Z,66.15
2022-12-16T12:56:09.048Z,73.03
2022-12-16T12:58:57.863Z,70.80
2022-12-16T13:01:49.890Z,69.90
2022-12-16T13:04:39.832Z,78.78
2022-12-16T13:07:27.262Z,83.93
2022-12-16T13:10:34.005Z,80.25
2022-12-16T13:13:48.115Z,73.32
2022-12-16T13:17:05.320Z,75.47
2022-12-16T13:19:54.530Z,80.07
2022-12-16T13:23:03.770Z,58.13
2022-12-16T13:26:10.335Z,75.30
2022-12-16T13:29:01.483Z,64.65
2022-12-16T13:31:49.115Z,58.50
2022-12-16T13:34:46.184Z,68.13
2022-12-16T13:37:43.436Z,60.70
2022-12-16T13:40:38.359Z,74.18
2022-12-16T13:43:45.428Z,77.90
2022-12-16T13:46:33.819Z,68.22
2022-12-16T13:49:56.009Z,78.63
2022-12-16T13:53:07.399Z,78.53
2022-12-16T13:56:15.936Z,71.28
2022-12-16T13:59:08.622Z,71.90
2022-12-16T14:02:15.588Z,85.50
2022-12-16T14:05:07.090Z,80.85
2022-12-16T14:07:57.684Z,88.45
2022-12-16T14:10:51.935Z,79.40
2022-12-16T14:14:05.086Z,79.28
2022-12-16T14:17:06.323Z,99.53
2022-12-16T14:20:20.996Z,97.15
2022-12-16T14:23:55.820Z,92.07
2022-12-16T14:26:39.759Z,80.93
2022-12-16T14:29:40.082Z,72.00
2022-12-16T14:32:44.880Z,75.65
2022-12-16T14:35:46.495Z,83.35
2022-12-16T14:38:43.828Z,82.38
2022-12-16T14:41:44.053Z,72.20
2022-12-16T14:44:41.983Z,79.68
2022-12-16T14:47:39.290Z,57.47
2022-12-16T14:50:39.809Z,69.82
2022-12-16T14:53:48.954Z,77.32
2022-12-16T14:56:41.735Z,81.70
2022-12-16T14:59:38.726Z,77.10
2022-12-16T15:02:52.623Z,82.15
2022-12-16T15:05:46.086Z,88.30
2022-12-16T15:08:36.434Z,84.53
2022-12-16T15:11:27.861Z,79.60
2022-12-16T15:14:18.956Z,83.28
2022-12-16T15:17:07.873Z,81.30
2022-12-16T15:20:08.561Z,74.32
2022-12-16T15:22:55.099Z,70.53
2022-12-16T15:25:44.229Z,76.20
2022-12-16T15:29:01.447Z,77.50
2022-12-16T15:31:55.228Z,71.18
2022-12-16T15:35:07.135Z,81.50
2022-12-16T15:38:04.132Z,73.07
2022-12-16T15:41:00.164Z,81.43
2022-12-16T15:43:57.369Z,91.10
2022-12-16T15:46:48.137Z,89.80
2022-12-16T15:49:46.452Z,69.05
2022-12-16T15:52:53.507Z,70.68
2022-12-16T15:55:49.419Z,65.25
2022-12-16T15:58:53.649Z,77.05
2022-12-16T16:04:47.163Z,77.10
2022-12-16T16:07:42.878Z,69.43
2022-12-16T16:10:36.672Z,70.35
2022-12-16T16:13:23.600Z,66.90
2022-12-16T16:16:10.771Z,57.97
2022-12-16T16:18:58.565Z,69.88
2022-12-16T16:21:45.082Z,67.13
2022-12-16T16:24:32.204Z,76.10
2022-12-16T16:27:21.069Z,67.72
2022-12-16T16:30:07.549Z,65.13
2022-12-16T16:32:53.856Z,67.25
2022-12-16T16:35:40.360Z,66.18
2022-12-16T16:38:31.705Z,64.05
2022-12-16T16:41:18.525Z,67.18
2022-12-16T16:44:04.844Z,57.70
2022-12-16T16:46:59.055Z,71.45
2022-12-16T16:49:52.309Z,64.75
2022-12-16T16:52:41.632Z,60.10
2022-12-16T16:55:42.946Z,73.50
2022-12-16T16:58:45.584Z,62.60
2022-12-16T17:01:33.303Z,65.15
2022-12-16T17:04:20.665Z,67.57
2022-12-16T17:07:07.075Z,75.78
2022-12-16T17:09:53.818Z,76.53
2022-12-16T17:12:42.797Z,61.85
2022-12-16T17:15:42.862Z,68.10
2022-12-16T17:18:29.454Z,57.10
2022-12-16T17:21:16.094Z,65.68
2022-12-16T17:24:02.592Z,65.25
2022-12-16T17:26:49.393Z,58.30
2022-12-16T17:29:41.607Z,63.78
2022-12-16T17:32:29.329Z,63.13
2022-12-16T17:35:16.243Z,64.28
2022-12-16T17:38:03.188Z,65.65
2022-12-16T17:40:49.185Z,62.55
2022-12-16T17:43:35.950Z,66.45
2022-12-16T17:46:25.738Z,61.50
2022-12-16T17:49:13.709Z,60.38
2022-12-16T17:52:00.732Z,52.72
2022-12-16T17:54:47.684Z,56.92
2022-12-16T17:57:33.806Z,59.50
2022-12-16T18:00:20.198Z,58.10
2022-12-16T18:03:06.709Z,60.63
2022-12-16T18:05:53.415Z,60.13
2022-12-16T18:08:39.962Z,58.40
2022-12-16T18:11:26.614Z,54.20
2022-12-16T18:14:13.155Z,55.25
2022-12-16T18:16:59.777Z,51.67
2022-12-16T18:19:46.298Z,62.90
2022-12-16T18:22:35.303Z,59.55
2022-12-16T18:25:21.787Z,61.08
2022-12-16T18:28:08.366Z,62.30
2022-12-16T18:30:56.056Z,65.07
2022-12-16T18:33:42.543Z,88.78
2022-12-16T18:36:45.699Z,64.15
2022-12-16T18:39:32.205Z,79.47
2022-12-16T18:42:18.601Z,71.75
2022-12-16T18:45:07.621Z,69.85
2022-12-16T18:47:54.047Z,69.00
2022-12-16T18:50:40.629Z,67.63
2022-12-16T18:53:27.333Z,66.63
2022-12-16T18:56:25.969Z,62.53
2022-12-16T18:59:12.666Z,56.95
2022-12-16T19:01:59.720Z,60.65
2022-12-16T19:04:46.259Z,66.63
2022-12-16T19:07:33.901Z,65.22
2022-12-16T19:10:20.783Z,68.82
2022-12-16T19:13:07.413Z,60.70
2022-12-16T19:15:54.365Z,82.05
2022-12-16T19:18:41.338Z,73.82
2022-12-16T19:21:28.854Z,84.53
2022-12-16T19:24:15.275Z,95.10
2022-12-16T19:27:01.860Z,105.10
2022-12-16T19:29:48.421Z,99.85
2022-12-16T19:32:34.818Z,102.30
2022-12-16T19:35:21.411Z,74.63
2022-12-16T19:38:08.091Z,89.43
2022-12-16T19:40:54.584Z,63.50
2022-12-16T19:43:42.648Z,103.35
2022-12-16T19:46:29.218Z,111.38
2022-12-16T19:49:15.366Z,77.75
2022-12-16T19:52:01.785Z,68.18
2022-12-16T19:54:48.444Z,70.03
2022-12-16T19:57:34.982Z,61.20
2022-12-16T20:00:22.558Z,65.47
2022-12-16T20:03:09.495Z,58.10
2022-12-16T20:05:56.045Z,63.90
2022-12-16T20:08:42.726Z,60.53
2022-12-16T20:11:29.388Z,64.05
2022-12-16T20:14:16.353Z,65.68
2022-12-16T20:17:02.864Z,66.38
2022-12-16T20:19:49.484Z,65.55
2022-12-16T20:22:35.615Z,73.38
2022-12-16T20:25:22.152Z,68.70
2022-12-16T20:28:08.401Z,73.68
2022-12-16T20:30:56.278Z,61.80
2022-12-16T20:33:43.200Z,81.75
2022-12-16T20:36:29.941Z,63.90
2022-12-16T20:39:16.399Z,67.18
2022-12-16T20:42:02.888Z,68.88
2022-12-16T20:44:49.473Z,79.03
2022-12-16T20:47:36.210Z,70.45
2022-12-16T20:50:22.600Z,66.47
2022-12-16T20:53:09.282Z,63.20
2022-12-16T20:55:56.192Z,61.90
2022-12-16T20:58:43.021Z,64.47
2022-12-16T21:01:29.652Z,66.70
2022-12-16T21:04:16.140Z,62.67
2022-12-16T21:07:02.643Z,66.28
2022-12-16T21:09:49.533Z,86.03
2022-12-16T21:12:35.933Z,92.72
2022-12-16T21:15:23.047Z,94.57
2022-12-16T21:18:09.520Z,81.47
2022-12-16T21:20:56.439Z,89.55
2022-12-16T21:23:42.935Z,123.13
2022-12-16T21:26:29.552Z,119.90
2022-12-16T21:29:15.618Z,87.57
2022-12-16T21:32:02.423Z,87.07
2022-12-16T21:34:48.744Z,87.60
2022-12-16T21:37:35.151Z,77.22
2022-12-16T21:40:21.986Z,69.55
2022-12-16T21:43:08.518Z,71.90
2022-12-16T21:45:56.121Z,63.42
2022-12-16T21:48:47.135Z,65.97
2022-12-16T21:51:33.432Z,64.82
2022-12-16T21:54:21.472Z,56.45
2022-12-16T21:57:07.809Z,66.70
2022-12-16T21:59:54.249Z,72.18
2022-12-16T22:02:43.074Z,71.68
2022-12-16T22:05:29.983Z,71.88
2022-12-16T22:08:16.681Z,69.55
2022-12-16T22:11:03.278Z,70.75
2022-12-16T22:13:49.899Z,65.78
2022-12-16T22:16:43.762Z,72.53
2022-12-16T22:29:12.552Z,69.30
2022-12-16T22:31:59.165Z,70.40
2022-12-16T22:34:45.460Z,76.78
2022-12-16T22:37:31.928Z,77.80
2022-12-16T22:40:18.474Z,76.10
2022-12-16T22:43:07.494Z,72.47
2022-12-16T22:45:54.038Z,74.10
2022-12-16T22:48:42.762Z,71.93
2022-12-16T22:51:30.781Z,74.97
2022-12-16T22:54:17.755Z,74.35
2022-12-16T22:57:04.205Z,70.50
2022-12-16T22:59:50.690Z,69.90
2022-12-16T23:02:38.300Z,80.18
2022-12-16T23:05:27.724Z,76.97
2022-12-16T23:08:14.982Z,78.53
2022-12-16T23:11:01.533Z,73.88
2022-12-16T23:13:47.976Z,78.47
2022-12-16T23:16:34.577Z,70.35
2022-12-16T23:19:20.945Z,77.28
2022-12-16T23:22:08.217Z,68.88
2022-12-16T23:24:54.591Z,73.50
2022-12-16T23:27:41.334Z,74.20
2022-12-16T23:30:28.406Z,69.07
2022-12-16T23:33:19.156Z,64.68
2022-12-16T23:36:05.186Z,67.35
2022-12-16T23:38:51.738Z,75.20
2022-12-16T23:41:39.698Z,62.83
2022-12-16T23:44:26.437Z,67.82
2022-12-16T23:47:12.813Z,72.78
2022-12-16T23:49:59.331Z,66.00
2022-12-16T23:52:45.742Z,68.68
2022-12-16T23:55:32.290Z,67.28
2022-12-16T23:58:20.011Z,65.03
